Terminal Aerodrome Forecast
Issued by NWS Tiyan, Guam

Home | Current Version | Previous Version | Text Only | Print | Product List | Glossary On
Versions: 1 2 3 4 5 6 7 8 9 10 11 12 13 14 15 16 17 18 19 20 21 22 23 24 25 26 27 28 29 30 31 32 33
000
FTPQ31 PGUM 111500 AAA
TAFPQ
TAF AMD
PGUM 111515Z 1115/1218 32008KT 6SM -SHRA SCT014 BKN050 OVC120
      TEMPO 1116/1119 33010G20KT 2SM +SHRA BKN012 OVC045
     FM112000 30015G25KT P6SM VCSH SCT014 OVC045
     FM120000 23010G20KT P6SM VCSH SCT014 BKN050 OVC120=

USA.gov is the U.S. government's official web portal to all federal, state and local government web resources and services.